sensor_id;sensor_type;location;lat;lon;timestamp;pressure;altitude;pressure_sealevel;temperature;humidity
75089;BME280;63673;49.928;8.150;2023-12-20T00:00:29;990.9;;;3.48;100
75089;BME280;63673;49.928;8.150;2023-12-20T00:01:31;990.8;;;3.47;100
75089;BME280;63673;49.928;8.150;2023-12-20T00:02:32;990.81;;;3.47;100
75089;BME280;63673;49.928;8.150;2023-12-20T00:03:34;990.86;;;3.47;100
75089;BME280;63673;49.928;8.150;2023-12-20T00:04:36;990.93;;;3.46;100
75089;BME280;63673;49.928;8.150;2023-12-20T00:05:38;990.92;;;3.46;100
75089;BME280;63673;49.928;8.150;2023-12-20T00:06:39;990.93;;;3.46;100
75089;BME280;63673;49.928;8.150;2023-12-20T00:07:41;990.91;;;3.47;100
75089;BME280;63673;49.928;8.150;2023-12-20T00:08:43;990.94;;;3.46;100
75089;BME280;63673;49.928;8.150;2023-12-20T00:09:45;990.91;;;3.46;100
75089;BME280;63673;49.928;8.150;2023-12-20T00:10:46;990.91;;;3.46;100
75089;BME280;63673;49.928;8.150;2023-12-20T00:11:48;990.92;;;3.46;100
75089;BME280;63673;49.928;8.150;2023-12-20T00:12:50;990.88;;;3.45;100
75089;BME280;63673;49.928;8.150;2023-12-20T00:13:52;990.9;;;3.44;100
75089;BME280;63673;49.928;8.150;2023-12-20T00:14:53;990.88;;;3.45;100
75089;BME280;63673;49.928;8.150;2023-12-20T00:15:55;990.79;;;3.45;100
75089;BME280;63673;49.928;8.150;2023-12-20T00:16:57;990.83;;;3.45;100
75089;BME280;63673;49.928;8.150;2023-12-20T00:17:58;990.82;;;3.44;100
75089;BME280;63673;49.928;8.150;2023-12-20T00:19:00;990.8;;;3.44;100
75089;BME280;63673;49.928;8.150;2023-12-20T00:20:02;990.78;;;3.44;100
75089;BME280;63673;49.928;8.150;2023-12-20T00:21:04;990.79;;;3.45;100
75089;BME280;63673;49.928;8.150;2023-12-20T00:22:06;990.81;;;3.43;100
75089;BME280;63673;49.928;8.150;2023-12-20T00:23:07;990.85;;;3.44;100
75089;BME280;63673;49.928;8.150;2023-12-20T00:24:09;990.89;;;3.43;100
75089;BME280;63673;49.928;8.150;2023-12-20T00:25:11;990.85;;;3.43;100
75089;BME280;63673;49.928;8.150;2023-12-20T00:26:12;990.85;;;3.43;100
75089;BME280;63673;49.928;8.150;2023-12-20T00:27:14;990.84;;;3.43;100
75089;BME280;63673;49.928;8.150;2023-12-20T00:28:16;990.83;;;3.44;100
75089;BME280;63673;49.928;8.150;2023-12-20T00:29:18;990.81;;;3.43;100
75089;BME280;63673;49.928;8.150;2023-12-20T00:30:19;990.8;;;3.42;100
75089;BME280;63673;49.928;8.150;2023-12-20T00:31:21;990.74;;;3.43;100
75089;BME280;63673;49.928;8.150;2023-12-20T00:32:23;990.77;;;3.42;100
75089;BME280;63673;49.928;8.150;2023-12-20T00:33:24;990.72;;;3.43;100
75089;BME280;63673;49.928;8.150;2023-12-20T00:34:26;990.72;;;3.42;100
75089;BME280;63673;49.928;8.150;2023-12-20T00:35:28;990.62;;;3.42;100
75089;BME280;63673;49.928;8.150;2023-12-20T00:36:30;990.67;;;3.42;100
75089;BME280;63673;49.928;8.150;2023-12-20T00:48:53;990.66;;;3.41;100
75089;BME280;63673;49.928;8.150;2023-12-20T00:49:54;990.59;;;3.41;100
75089;BME280;63673;49.928;8.150;2023-12-20T00:50:56;990.6;;;3.41;100
75089;BME280;63673;49.928;8.150;2023-12-20T00:51:58;990.56;;;3.41;100
75089;BME280;63673;49.928;8.150;2023-12-20T00:53:00;990.57;;;3.41;100
75089;BME280;63673;49.928;8.150;2023-12-20T00:54:01;990.51;;;3.41;100
75089;BME280;63673;49.928;8.150;2023-12-20T00:55:03;990.47;;;3.42;100
75089;BME280;63673;49.928;8.150;2023-12-20T00:56:05;990.46;;;3.42;100
75089;BME280;63673;49.928;8.150;2023-12-20T00:57:07;990.44;;;3.42;100
75089;BME280;63673;49.928;8.150;2023-12-20T00:58:08;990.4;;;3.42;100
75089;BME280;63673;49.928;8.150;2023-12-20T00:59:10;990.41;;;3.43;100
75089;BME280;63673;49.928;8.150;2023-12-20T01:00:12;990.44;;;3.43;100
75089;BME280;63673;49.928;8.150;2023-12-20T01:01:14;990.42;;;3.44;100
75089;BME280;63673;49.928;8.150;2023-12-20T01:02:15;990.48;;;3.43;100
75089;BME280;63673;49.928;8.150;2023-12-20T01:03:17;990.42;;;3.44;100
75089;BME280;63673;49.928;8.150;2023-12-20T01:04:19;990.43;;;3.44;100
75089;BME280;63673;49.928;8.150;2023-12-20T01:05:20;990.39;;;3.45;100
75089;BME280;63673;49.928;8.150;2023-12-20T01:06:22;990.41;;;3.44;100
75089;BME280;63673;49.928;8.150;2023-12-20T01:07:24;990.4;;;3.45;100
75089;BME280;63673;49.928;8.150;2023-12-20T01:08:26;990.41;;;3.45;100
75089;BME280;63673;49.928;8.150;2023-12-20T01:09:27;990.45;;;3.44;100
75089;BME280;63673;49.928;8.150;2023-12-20T01:10:29;990.42;;;3.44;100
75089;BME280;63673;49.928;8.150;2023-12-20T01:11:31;990.39;;;3.45;100
75089;BME280;63673;49.928;8.150;2023-12-20T01:12:33;990.4;;;3.46;100
75089;BME280;63673;49.928;8.150;2023-12-20T01:13:34;990.39;;;3.45;100
75089;BME280;63673;49.928;8.150;2023-12-20T01:14:36;990.35;;;3.45;100
75089;BME280;63673;49.928;8.150;2023-12-20T01:15:38;990.4;;;3.46;100
75089;BME280;63673;49.928;8.150;2023-12-20T01:16:40;990.4;;;3.45;100
75089;BME280;63673;49.928;8.150;2023-12-20T01:17:43;990.44;;;3.46;100
75089;BME280;63673;49.928;8.150;2023-12-20T01:18:43;990.42;;;3.46;100
75089;BME280;63673;49.928;8.150;2023-12-20T01:19:45;990.41;;;3.45;100
75089;BME280;63673;49.928;8.150;2023-12-20T01:20:46;990.45;;;3.46;100
75089;BME280;63673;49.928;8.150;2023-12-20T01:21:48;990.44;;;3.47;100
75089;BME280;63673;49.928;8.150;2023-12-20T01:22:50;990.41;;;3.46;100
75089;BME280;63673;49.928;8.150;2023-12-20T01:23:52;990.38;;;3.47;100
75089;BME280;63673;49.928;8.150;2023-12-20T01:24:53;990.39;;;3.46;100
75089;BME280;63673;49.928;8.150;2023-12-20T01:25:55;990.43;;;3.47;100
75089;BME280;63673;49.928;8.150;2023-12-20T01:26:57;990.46;;;3.48;100
75089;BME280;63673;49.928;8.150;2023-12-20T01:27:59;990.5;;;3.47;100
75089;BME280;63673;49.928;8.150;2023-12-20T01:29:00;990.47;;;3.48;100
75089;BME280;63673;49.928;8.150;2023-12-20T01:30:02;990.44;;;3.48;100
75089;BME280;63673;49.928;8.150;2023-12-20T01:31:04;990.42;;;3.48;100
75089;BME280;63673;49.928;8.150;2023-12-20T01:32:06;990.42;;;3.49;100
75089;BME280;63673;49.928;8.150;2023-12-20T01:33:07;990.36;;;3.49;100
75089;BME280;63673;49.928;8.150;2023-12-20T01:34:09;990.37;;;3.49;100
75089;BME280;63673;49.928;8.150;2023-12-20T01:35:11;990.36;;;3.49;100
75089;BME280;63673;49.928;8.150;2023-12-20T01:36:12;990.4;;;3.5;100
75089;BME280;63673;49.928;8.150;2023-12-20T01:37:14;990.39;;;3.5;100
75089;BME280;63673;49.928;8.150;2023-12-20T01:38:16;990.41;;;3.5;100
75089;BME280;63673;49.928;8.150;2023-12-20T01:39:18;990.38;;;3.51;100
75089;BME280;63673;49.928;8.150;2023-12-20T01:40:19;990.4;;;3.52;100
75089;BME280;63673;49.928;8.150;2023-12-20T01:41:21;990.41;;;3.51;100
75089;BME280;63673;49.928;8.150;2023-12-20T01:42:23;990.45;;;3.51;100
75089;BME280;63673;49.928;8.150;2023-12-20T01:43:25;990.46;;;3.51;100
75089;BME280;63673;49.928;8.150;2023-12-20T01:44:26;990.47;;;3.52;100
75089;BME280;63673;49.928;8.150;2023-12-20T01:45:28;990.51;;;3.51;100
75089;BME280;63673;49.928;8.150;2023-12-20T01:46:30;990.54;;;3.51;100
75089;BME280;63673;49.928;8.150;2023-12-20T01:47:32;990.56;;;3.52;100
75089;BME280;63673;49.928;8.150;2023-12-20T01:48:33;990.6;;;3.52;100
75089;BME280;63673;49.928;8.150;2023-12-20T01:49:35;990.58;;;3.53;100
75089;BME280;63673;49.928;8.150;2023-12-20T01:50:37;990.57;;;3.53;100
75089;BME280;63673;49.928;8.150;2023-12-20T01:51:38;990.51;;;3.53;100
75089;BME280;63673;49.928;8.150;2023-12-20T01:52:41;990.52;;;3.53;100
75089;BME280;63673;49.928;8.150;2023-12-20T01:53:42;990.52;;;3.53;100
75089;BME280;63673;49.928;8.150;2023-12-20T01:54:44;990.53;;;3.53;100
75089;BME280;63673;49.928;8.150;2023-12-20T01:55:45;990.56;;;3.53;100
75089;BME280;63673;49.928;8.150;2023-12-20T01:56:48;990.56;;;3.54;100
75089;BME280;63673;49.928;8.150;2023-12-20T01:57:49;990.6;;;3.54;100
75089;BME280;63673;49.928;8.150;2023-12-20T01:58:51;990.57;;;3.54;100
75089;BME280;63673;49.928;8.150;2023-12-20T01:59:52;990.58;;;3.54;100
75089;BME280;63673;49.928;8.150;2023-12-20T02:00:54;990.52;;;3.54;100
75089;BME280;63673;49.928;8.150;2023-12-20T02:01:56;990.55;;;3.54;100
75089;BME280;63673;49.928;8.150;2023-12-20T02:02:58;990.54;;;3.54;100
75089;BME280;63673;49.928;8.150;2023-12-20T02:03:59;990.53;;;3.55;100
75089;BME280;63673;49.928;8.150;2023-12-20T02:05:01;990.56;;;3.54;100
75089;BME280;63673;49.928;8.150;2023-12-20T02:06:03;990.51;;;3.54;100
75089;BME280;63673;49.928;8.150;2023-12-20T02:07:04;990.48;;;3.54;100
75089;BME280;63673;49.928;8.150;2023-12-20T02:08:06;990.49;;;3.54;100
75089;BME280;63673;49.928;8.150;2023-12-20T02:09:08;990.38;;;3.55;100
75089;BME280;63673;49.928;8.150;2023-12-20T02:10:10;990.48;;;3.54;100
75089;BME280;63673;49.928;8.150;2023-12-20T02:11:11;990.57;;;3.54;100
75089;BME280;63673;49.928;8.150;2023-12-20T02:12:13;990.58;;;3.54;100
75089;BME280;63673;49.928;8.150;2023-12-20T02:13:15;990.55;;;3.53;100
75089;BME280;63673;49.928;8.150;2023-12-20T02:28:35;990.52;;;3.52;100
75089;BME280;63673;49.928;8.150;2023-12-20T02:29:36;990.36;;;3.52;100
75089;BME280;63673;49.928;8.150;2023-12-20T02:30:38;990.35;;;3.53;100
75089;BME280;63673;49.928;8.150;2023-12-20T02:31:40;990.31;;;3.53;100
75089;BME280;63673;49.928;8.150;2023-12-20T02:32:41;990.3;;;3.53;100
75089;BME280;63673;49.928;8.150;2023-12-20T02:33:43;990.37;;;3.53;100
75089;BME280;63673;49.928;8.150;2023-12-20T02:34:46;990.3;;;3.54;100
75089;BME280;63673;49.928;8.150;2023-12-20T02:35:47;990.36;;;3.55;100
75089;BME280;63673;49.928;8.150;2023-12-20T02:36:48;990.36;;;3.56;100
75089;BME280;63673;49.928;8.150;2023-12-20T02:37:50;990.41;;;3.57;100
75089;BME280;63673;49.928;8.150;2023-12-20T02:38:52;990.37;;;3.58;100
75089;BME280;63673;49.928;8.150;2023-12-20T02:39:54;990.43;;;3.59;100
75089;BME280;63673;49.928;8.150;2023-12-20T02:40:55;990.36;;;3.59;100
75089;BME280;63673;49.928;8.150;2023-12-20T02:41:57;990.32;;;3.6;100
75089;BME280;63673;49.928;8.150;2023-12-20T02:42:59;990.31;;;3.6;100
75089;BME280;63673;49.928;8.150;2023-12-20T02:44:01;990.37;;;3.61;100
75089;BME280;63673;49.928;8.150;2023-12-20T02:45:02;990.38;;;3.62;100
75089;BME280;63673;49.928;8.150;2023-12-20T02:46:04;990.34;;;3.62;100
75089;BME280;63673;49.928;8.150;2023-12-20T02:47:06;990.32;;;3.63;100
75089;BME280;63673;49.928;8.150;2023-12-20T02:48:07;990.33;;;3.63;100
75089;BME280;63673;49.928;8.150;2023-12-20T02:49:09;990.36;;;3.64;100
75089;BME280;63673;49.928;8.150;2023-12-20T02:50:11;990.42;;;3.64;100
75089;BME280;63673;49.928;8.150;2023-12-20T02:51:13;990.45;;;3.65;100
75089;BME280;63673;49.928;8.150;2023-12-20T02:52:14;990.46;;;3.65;100
75089;BME280;63673;49.928;8.150;2023-12-20T02:53:16;990.46;;;3.66;100
75089;BME280;63673;49.928;8.150;2023-12-20T02:54:18;990.51;;;3.67;100
75089;BME280;63673;49.928;8.150;2023-12-20T02:55:20;990.48;;;3.68;100
75089;BME280;63673;49.928;8.150;2023-12-20T02:56:21;990.43;;;3.69;100
75089;BME280;63673;49.928;8.150;2023-12-20T02:57:23;990.46;;;3.69;100
75089;BME280;63673;49.928;8.150;2023-12-20T02:58:25;990.46;;;3.7;100
75089;BME280;63673;49.928;8.150;2023-12-20T02:59:26;990.43;;;3.72;100
75089;BME280;63673;49.928;8.150;2023-12-20T03:00:27;990.47;;;3.72;100
75089;BME280;63673;49.928;8.150;2023-12-20T03:01:30;990.38;;;3.74;100
75089;BME280;63673;49.928;8.150;2023-12-20T03:02:32;990.4;;;3.74;100
75089;BME280;63673;49.928;8.150;2023-12-20T03:03:33;990.34;;;3.77;100
75089;BME280;63673;49.928;8.150;2023-12-20T03:04:35;990.38;;;3.78;100
75089;BME280;63673;49.928;8.150;2023-12-20T03:05:37;990.39;;;3.78;100
75089;BME280;63673;49.928;8.150;2023-12-20T03:06:39;990.37;;;3.79;100
75089;BME280;63673;49.928;8.150;2023-12-20T03:07:40;990.39;;;3.8;100
75089;BME280;63673;49.928;8.150;2023-12-20T03:08:42;990.38;;;3.81;100
75089;BME280;63673;49.928;8.150;2023-12-20T03:09:44;990.48;;;3.82;100
75089;BME280;63673;49.928;8.150;2023-12-20T03:10:46;990.46;;;3.82;100
75089;BME280;63673;49.928;8.150;2023-12-20T03:11:47;990.45;;;3.83;100
75089;BME280;63673;49.928;8.150;2023-12-20T03:12:49;990.5;;;3.84;100
75089;BME280;63673;49.928;8.150;2023-12-20T03:13:51;990.43;;;3.83;100
75089;BME280;63673;49.928;8.150;2023-12-20T03:14:53;990.5;;;3.84;100
75089;BME280;63673;49.928;8.150;2023-12-20T03:15:54;990.54;;;3.84;100
75089;BME280;63673;49.928;8.150;2023-12-20T03:16:56;990.51;;;3.84;100
75089;BME280;63673;49.928;8.150;2023-12-20T03:17:58;990.56;;;3.84;100
75089;BME280;63673;49.928;8.150;2023-12-20T03:18:59;990.52;;;3.84;100
75089;BME280;63673;49.928;8.150;2023-12-20T03:20:01;990.6;;;3.84;100
75089;BME280;63673;49.928;8.150;2023-12-20T03:21:03;990.58;;;3.85;100
75089;BME280;63673;49.928;8.150;2023-12-20T03:22:05;990.66;;;3.86;100
75089;BME280;63673;49.928;8.150;2023-12-20T03:23:06;990.65;;;3.88;100
75089;BME280;63673;49.928;8.150;2023-12-20T03:24:08;990.67;;;3.9;100
75089;BME280;63673;49.928;8.150;2023-12-20T03:25:10;990.69;;;3.91;100
75089;BME280;63673;49.928;8.150;2023-12-20T03:26:12;990.7;;;3.92;100
75089;BME280;63673;49.928;8.150;2023-12-20T03:27:13;990.71;;;3.92;100
75089;BME280;63673;49.928;8.150;2023-12-20T03:28:15;990.71;;;3.92;100
75089;BME280;63673;49.928;8.150;2023-12-20T03:29:17;990.78;;;3.93;100
75089;BME280;63673;49.928;8.150;2023-12-20T03:30:19;990.79;;;3.93;100
75089;BME280;63673;49.928;8.150;2023-12-20T03:31:20;990.85;;;3.95;100
75089;BME280;63673;49.928;8.150;2023-12-20T03:32:22;990.85;;;3.96;100
75089;BME280;63673;49.928;8.150;2023-12-20T03:33:24;990.93;;;3.96;100
75089;BME280;63673;49.928;8.150;2023-12-20T03:34:26;990.96;;;3.97;100
75089;BME280;63673;49.928;8.150;2023-12-20T03:35:27;990.91;;;3.97;100
75089;BME280;63673;49.928;8.150;2023-12-20T03:36:29;990.88;;;3.98;100
75089;BME280;63673;49.928;8.150;2023-12-20T03:37:31;990.85;;;3.98;100
75089;BME280;63673;49.928;8.150;2023-12-20T03:38:32;990.84;;;4;100
75089;BME280;63673;49.928;8.150;2023-12-20T03:39:34;990.93;;;3.99;100
75089;BME280;63673;49.928;8.150;2023-12-20T03:40:36;990.92;;;4;100
75089;BME280;63673;49.928;8.150;2023-12-20T03:41:38;990.9;;;4;100
75089;BME280;63673;49.928;8.150;2023-12-20T03:42:39;990.94;;;4;100
75089;BME280;63673;49.928;8.150;2023-12-20T03:43:41;990.86;;;4;100
75089;BME280;63673;49.928;8.150;2023-12-20T03:44:43;990.89;;;4.01;100
75089;BME280;63673;49.928;8.150;2023-12-20T03:45:44;990.88;;;4;100
75089;BME280;63673;49.928;8.150;2023-12-20T03:46:46;990.98;;;4.01;100
75089;BME280;63673;49.928;8.150;2023-12-20T03:47:48;990.91;;;4.01;100
75089;BME280;63673;49.928;8.150;2023-12-20T03:48:50;990.91;;;4.01;100
75089;BME280;63673;49.928;8.150;2023-12-20T03:49:52;990.95;;;4.01;100
75089;BME280;63673;49.928;8.150;2023-12-20T03:50:53;990.96;;;4.01;100
75089;BME280;63673;49.928;8.150;2023-12-20T03:51:55;990.96;;;4.02;100
75089;BME280;63673;49.928;8.150;2023-12-20T03:52:57;990.96;;;4.02;100
75089;BME280;63673;49.928;8.150;2023-12-20T03:53:58;990.97;;;4.01;100
75089;BME280;63673;49.928;8.150;2023-12-20T03:55:00;990.97;;;4.03;100
75089;BME280;63673;49.928;8.150;2023-12-20T03:56:02;990.97;;;4.02;100
75089;BME280;63673;49.928;8.150;2023-12-20T03:57:04;990.95;;;4.02;100
75089;BME280;63673;49.928;8.150;2023-12-20T03:58:05;990.93;;;4.02;100
75089;BME280;63673;49.928;8.150;2023-12-20T03:59:07;990.91;;;4.03;100
75089;BME280;63673;49.928;8.150;2023-12-20T04:00:09;991.01;;;4.03;100
75089;BME280;63673;49.928;8.150;2023-12-20T04:01:11;990.91;;;4.03;100
75089;BME280;63673;49.928;8.150;2023-12-20T04:02:12;990.94;;;4.04;100
75089;BME280;63673;49.928;8.150;2023-12-20T04:03:14;990.96;;;4.04;100
75089;BME280;63673;49.928;8.150;2023-12-20T04:04:16;990.9;;;4.04;100
75089;BME280;63673;49.928;8.150;2023-12-20T04:05:17;990.95;;;4.04;100
75089;BME280;63673;49.928;8.150;2023-12-20T04:06:19;990.94;;;4.04;100
75089;BME280;63673;49.928;8.150;2023-12-20T04:07:21;990.93;;;4.05;100
75089;BME280;63673;49.928;8.150;2023-12-20T04:08:23;990.92;;;4.04;100
75089;BME280;63673;49.928;8.150;2023-12-20T04:09:24;990.9;;;4.04;100
75089;BME280;63673;49.928;8.150;2023-12-20T04:10:26;990.96;;;4.03;100
75089;BME280;63673;49.928;8.150;2023-12-20T04:11:28;990.96;;;4.03;100
75089;BME280;63673;49.928;8.150;2023-12-20T04:12:30;990.98;;;4.02;100
75089;BME280;63673;49.928;8.150;2023-12-20T04:13:31;991.02;;;4.01;100
75089;BME280;63673;49.928;8.150;2023-12-20T04:14:56;991.04;;;4.02;100
75089;BME280;63673;49.928;8.150;2023-12-20T04:20:04;991.04;;;4;100
75089;BME280;63673;49.928;8.150;2023-12-20T04:21:09;991.04;;;4;100
75089;BME280;63673;49.928;8.150;2023-12-20T04:22:11;991.1;;;4;100
75089;BME280;63673;49.928;8.150;2023-12-20T04:23:18;991.13;;;3.99;100
75089;BME280;63673;49.928;8.150;2023-12-20T04:24:32;991.14;;;3.98;100
75089;BME280;63673;49.928;8.150;2023-12-20T04:25:33;991.12;;;3.97;100
75089;BME280;63673;49.928;8.150;2023-12-20T04:26:34;991.12;;;3.96;100
75089;BME280;63673;49.928;8.150;2023-12-20T04:27:35;991.2;;;3.96;100
75089;BME280;63673;49.928;8.150;2023-12-20T04:28:37;991.22;;;3.95;100
75089;BME280;63673;49.928;8.150;2023-12-20T04:29:39;991.25;;;3.95;100
75089;BME280;63673;49.928;8.150;2023-12-20T04:30:41;991.23;;;3.94;100
75089;BME280;63673;49.928;8.150;2023-12-20T04:31:52;991.26;;;3.93;100
75089;BME280;63673;49.928;8.150;2023-12-20T04:32:54;991.29;;;3.92;100
75089;BME280;63673;49.928;8.150;2023-12-20T04:33:56;991.34;;;3.91;100
75089;BME280;63673;49.928;8.150;2023-12-20T04:36:37;991.35;;;3.9;100
75089;BME280;63673;49.928;8.150;2023-12-20T04:37:38;991.42;;;3.9;100
75089;BME280;63673;49.928;8.150;2023-12-20T04:38:54;991.44;;;3.89;100
75089;BME280;63673;49.928;8.150;2023-12-20T04:39:58;991.43;;;3.89;100
75089;BME280;63673;49.928;8.150;2023-12-20T04:41:02;991.49;;;3.89;100
75089;BME280;63673;49.928;8.150;2023-12-20T04:42:04;991.45;;;3.89;100
75089;BME280;63673;49.928;8.150;2023-12-20T04:43:05;991.45;;;3.9;100
75089;BME280;63673;49.928;8.150;2023-12-20T04:44:07;991.39;;;3.9;100
75089;BME280;63673;49.928;8.150;2023-12-20T04:45:09;991.42;;;3.9;100
75089;BME280;63673;49.928;8.150;2023-12-20T04:46:11;991.44;;;3.89;100
75089;BME280;63673;49.928;8.150;2023-12-20T04:47:12;991.4;;;3.88;100
75089;BME280;63673;49.928;8.150;2023-12-20T04:48:14;991.44;;;3.87;100
75089;BME280;63673;49.928;8.150;2023-12-20T04:49:16;991.49;;;3.85;100
75089;BME280;63673;49.928;8.150;2023-12-20T04:50:17;991.54;;;3.84;100
75089;BME280;63673;49.928;8.150;2023-12-20T04:51:19;991.6;;;3.83;100
75089;BME280;63673;49.928;8.150;2023-12-20T04:52:21;991.58;;;3.82;100
75089;BME280;63673;49.928;8.150;2023-12-20T04:53:23;991.64;;;3.81;100
75089;BME280;63673;49.928;8.150;2023-12-20T04:54:24;991.68;;;3.8;100
75089;BME280;63673;49.928;8.150;2023-12-20T04:55:26;991.69;;;3.79;100
75089;BME280;63673;49.928;8.150;2023-12-20T04:56:28;991.71;;;3.78;100
75089;BME280;63673;49.928;8.150;2023-12-20T04:57:30;991.67;;;3.76;100
75089;BME280;63673;49.928;8.150;2023-12-20T04:58:31;991.7;;;3.75;100
75089;BME280;63673;49.928;8.150;2023-12-20T04:59:33;991.71;;;3.72;100
75089;BME280;63673;49.928;8.150;2023-12-20T05:00:35;991.66;;;3.69;100
75089;BME280;63673;49.928;8.150;2023-12-20T05:01:36;991.73;;;3.65;100
75089;BME280;63673;49.928;8.150;2023-12-20T05:02:38;991.75;;;3.63;100
75089;BME280;63673;49.928;8.150;2023-12-20T05:03:40;991.81;;;3.59;100
75089;BME280;63673;49.928;8.150;2023-12-20T05:04:42;991.78;;;3.56;100
75089;BME280;63673;49.928;8.150;2023-12-20T05:05:43;991.81;;;3.52;100
75089;BME280;63673;49.928;8.150;2023-12-20T05:06:45;991.88;;;3.49;100
75089;BME280;63673;49.928;8.150;2023-12-20T05:07:47;991.86;;;3.47;100
75089;BME280;63673;49.928;8.150;2023-12-20T05:08:48;991.84;;;3.43;100
75089;BME280;63673;49.928;8.150;2023-12-20T05:09:50;991.9;;;3.41;100
75089;BME280;63673;49.928;8.150;2023-12-20T05:10:52;991.95;;;3.39;100
75089;BME280;63673;49.928;8.150;2023-12-20T05:11:54;991.95;;;3.36;100
75089;BME280;63673;49.928;8.150;2023-12-20T05:12:55;991.94;;;3.34;100
75089;BME280;63673;49.928;8.150;2023-12-20T05:13:57;991.92;;;3.3;100
75089;BME280;63673;49.928;8.150;2023-12-20T05:14:59;991.85;;;3.28;100
75089;BME280;63673;49.928;8.150;2023-12-20T05:16:01;991.87;;;3.26;100
75089;BME280;63673;49.928;8.150;2023-12-20T05:17:02;991.86;;;3.23;100
75089;BME280;63673;49.928;8.150;2023-12-20T05:18:04;991.85;;;3.2;100
75089;BME280;63673;49.928;8.150;2023-12-20T05:19:06;991.83;;;3.18;100
75089;BME280;63673;49.928;8.150;2023-12-20T05:20:08;991.83;;;3.16;100
75089;BME280;63673;49.928;8.150;2023-12-20T05:21:09;991.8;;;3.14;100
75089;BME280;63673;49.928;8.150;2023-12-20T05:22:11;991.8;;;3.13;100
75089;BME280;63673;49.928;8.150;2023-12-20T05:23:13;991.76;;;3.12;100
75089;BME280;63673;49.928;8.150;2023-12-20T05:24:14;991.72;;;3.12;100
75089;BME280;63673;49.928;8.150;2023-12-20T05:25:16;991.69;;;3.12;100
75089;BME280;63673;49.928;8.150;2023-12-20T05:26:18;991.76;;;3.11;100
75089;BME280;63673;49.928;8.150;2023-12-20T05:27:20;991.78;;;3.11;100
75089;BME280;63673;49.928;8.150;2023-12-20T05:28:21;991.83;;;3.12;100
75089;BME280;63673;49.928;8.150;2023-12-20T05:29:23;991.84;;;3.11;100
75089;BME280;63673;49.928;8.150;2023-12-20T05:30:25;991.82;;;3.13;100
75089;BME280;63673;49.928;8.150;2023-12-20T05:31:27;991.89;;;3.13;100
75089;BME280;63673;49.928;8.150;2023-12-20T05:32:28;991.9;;;3.14;100
75089;BME280;63673;49.928;8.150;2023-12-20T05:33:30;991.89;;;3.14;100
75089;BME280;63673;49.928;8.150;2023-12-20T05:34:32;991.91;;;3.14;100
75089;BME280;63673;49.928;8.150;2023-12-20T05:35:33;991.89;;;3.14;100
75089;BME280;63673;49.928;8.150;2023-12-20T05:36:35;991.93;;;3.15;100
75089;BME280;63673;49.928;8.150;2023-12-20T05:37:37;991.86;;;3.16;100
75089;BME280;63673;49.928;8.150;2023-12-20T05:38:39;991.97;;;3.16;100
75089;BME280;63673;49.928;8.150;2023-12-20T05:39:40;991.96;;;3.16;100
75089;BME280;63673;49.928;8.150;2023-12-20T05:40:42;991.93;;;3.15;100
75089;BME280;63673;49.928;8.150;2023-12-20T05:41:44;991.89;;;3.16;100
75089;BME280;63673;49.928;8.150;2023-12-20T05:42:46;991.84;;;3.16;100
75089;BME280;63673;49.928;8.150;2023-12-20T05:43:47;991.82;;;3.16;100
75089;BME280;63673;49.928;8.150;2023-12-20T05:44:49;991.81;;;3.15;100
75089;BME280;63673;49.928;8.150;2023-12-20T05:45:51;991.8;;;3.15;100
75089;BME280;63673;49.928;8.150;2023-12-20T05:46:53;991.81;;;3.15;100
75089;BME280;63673;49.928;8.150;2023-12-20T05:47:54;991.85;;;3.13;100
75089;BME280;63673;49.928;8.150;2023-12-20T05:48:56;991.85;;;3.12;100
75089;BME280;63673;49.928;8.150;2023-12-20T05:49:58;991.8;;;3.11;100
75089;BME280;63673;49.928;8.150;2023-12-20T05:50:59;991.82;;;3.09;100
75089;BME280;63673;49.928;8.150;2023-12-20T05:52:01;991.82;;;3.07;100
75089;BME280;63673;49.928;8.150;2023-12-20T05:53:03;991.89;;;3.06;100
75089;BME280;63673;49.928;8.150;2023-12-20T05:54:05;991.84;;;3.02;100
75089;BME280;63673;49.928;8.150;2023-12-20T05:55:06;991.81;;;3.01;100
75089;BME280;63673;49.928;8.150;2023-12-20T05:56:08;991.84;;;2.99;100
75089;BME280;63673;49.928;8.150;2023-12-20T05:57:10;991.88;;;2.96;100
75089;BME280;63673;49.928;8.150;2023-12-20T05:58:12;991.79;;;2.94;100
75089;BME280;63673;49.928;8.150;2023-12-20T05:59:13;991.85;;;2.92;100
75089;BME280;63673;49.928;8.150;2023-12-20T06:00:15;991.88;;;2.89;100
75089;BME280;63673;49.928;8.150;2023-12-20T06:01:17;991.85;;;2.86;100
75089;BME280;63673;49.928;8.150;2023-12-20T06:02:19;991.83;;;2.85;100
75089;BME280;63673;49.928;8.150;2023-12-20T06:03:20;991.89;;;2.81;100
75089;BME280;63673;49.928;8.150;2023-12-20T06:04:22;991.91;;;2.77;100
75089;BME280;63673;49.928;8.150;2023-12-20T06:05:24;991.92;;;2.75;100
75089;BME280;63673;49.928;8.150;2023-12-20T06:06:26;992.02;;;2.71;100
75089;BME280;63673;49.928;8.150;2023-12-20T06:07:27;992.02;;;2.66;100
75089;BME280;63673;49.928;8.150;2023-12-20T06:08:29;992.04;;;2.63;100
75089;BME280;63673;49.928;8.150;2023-12-20T06:09:31;992.09;;;2.59;100
75089;BME280;63673;49.928;8.150;2023-12-20T06:10:32;992.11;;;2.56;100
75089;BME280;63673;49.928;8.150;2023-12-20T06:11:34;992.09;;;2.52;100
75089;BME280;63673;49.928;8.150;2023-12-20T06:12:36;992.12;;;2.48;100
75089;BME280;63673;49.928;8.150;2023-12-20T06:13:38;992.15;;;2.45;100
75089;BME280;63673;49.928;8.150;2023-12-20T06:14:39;992.07;;;2.41;100
75089;BME280;63673;49.928;8.150;2023-12-20T06:15:41;992.11;;;2.39;100
75089;BME280;63673;49.928;8.150;2023-12-20T06:16:43;992.16;;;2.36;100
75089;BME280;63673;49.928;8.150;2023-12-20T06:17:45;992.17;;;2.33;100
75089;BME280;63673;49.928;8.150;2023-12-20T06:18:46;992.16;;;2.3;100
75089;BME280;63673;49.928;8.150;2023-12-20T06:19:48;992.16;;;2.27;100
75089;BME280;63673;49.928;8.150;2023-12-20T06:20:50;992.21;;;2.25;100
75089;BME280;63673;49.928;8.150;2023-12-20T06:21:51;992.15;;;2.23;100
75089;BME280;63673;49.928;8.150;2023-12-20T06:22:53;992.25;;;2.21;100
75089;BME280;63673;49.928;8.150;2023-12-20T06:23:55;992.28;;;2.19;100